createdAt,value
2019-03-04T00:00:25.983Z,995.54
2019-03-04T00:01:25.991Z,995.50
2019-03-04T00:02:25.963Z,995.62
2019-03-04T00:03:25.953Z,995.46
2019-03-04T00:04:25.944Z,995.53
2019-03-04T00:05:25.934Z,995.47
2019-03-04T00:06:25.935Z,995.45
2019-03-04T00:07:25.912Z,995.38
2019-03-04T00:08:25.901Z,995.36
2019-03-04T00:09:25.889Z,995.34
2019-03-04T00:10:25.875Z,995.33
2019-03-04T00:11:25.894Z,995.39
2019-03-04T00:12:25.854Z,995.38
2019-03-04T00:13:25.849Z,995.42
2019-03-04T00:14:25.834Z,995.45
2019-03-04T00:15:25.827Z,995.35
2019-03-04T00:16:25.814Z,995.38
2019-03-04T00:17:25.817Z,995.30
2019-03-04T00:18:25.790Z,995.18
2019-03-04T00:19:25.786Z,995.21
2019-03-04T00:20:25.770Z,995.17
2019-03-04T00:21:25.760Z,995.18
2019-03-04T00:22:25.762Z,995.14
2019-03-04T00:23:25.746Z,995.07
2019-03-04T00:24:25.731Z,995.11
2019-03-04T00:25:25.719Z,995.08
2019-03-04T00:26:25.709Z,994.99
2019-03-04T00:27:25.711Z,995.07
2019-03-04T00:28:25.693Z,994.97
2019-03-04T00:29:25.685Z,994.99
2019-03-04T00:30:25.667Z,995.07
2019-03-04T00:31:25.653Z,995.11
2019-03-04T00:32:25.660Z,995.11
2019-03-04T00:33:25.635Z,995.10
2019-03-04T00:34:25.632Z,995.14
2019-03-04T00:35:25.617Z,995.10
2019-03-04T00:36:25.606Z,995.14
2019-03-04T00:37:25.611Z,995.05
2019-03-04T00:38:25.585Z,995.09
2019-03-04T00:39:25.568Z,995.09
2019-03-04T00:40:25.559Z,995.08
2019-03-04T00:41:25.548Z,995.08
2019-03-04T00:42:25.537Z,995.06
2019-03-04T00:43:25.549Z,995.07
2019-03-04T00:44:25.531Z,995.04
2019-03-04T00:45:25.507Z,994.90
2019-03-04T00:46:25.499Z,994.96
2019-03-04T00:47:25.486Z,994.92
2019-03-04T00:48:25.486Z,994.89
2019-03-04T00:49:25.477Z,994.84
2019-03-04T00:50:25.449Z,994.83
2019-03-04T00:51:25.441Z,994.82
2019-03-04T00:52:25.431Z,994.84
2019-03-04T00:53:25.438Z,994.81
2019-03-04T00:54:25.430Z,994.78
2019-03-04T00:55:25.404Z,994.73
2019-03-04T00:56:25.392Z,994.82
2019-03-04T00:57:25.380Z,994.74
2019-03-04T00:58:25.390Z,994.82
2019-03-04T00:59:25.362Z,994.72
2019-03-04T01:00:25.347Z,994.64
2019-03-04T01:01:25.339Z,994.60
2019-03-04T01:02:25.327Z,994.52
2019-03-04T01:03:25.344Z,994.51
2019-03-04T01:04:25.308Z,994.48
2019-03-04T01:05:25.293Z,994.46
2019-03-04T01:06:25.281Z,994.48
2019-03-04T01:07:25.270Z,994.39
2019-03-04T01:08:25.262Z,994.41
2019-03-04T01:09:25.269Z,994.39
2019-03-04T01:10:25.239Z,994.36
2019-03-04T01:11:25.233Z,994.31
2019-03-04T01:12:25.223Z,994.33
2019-03-04T01:13:25.213Z,994.23
2019-03-04T01:14:25.214Z,994.33
2019-03-04T01:15:25.185Z,994.28
2019-03-04T01:16:25.177Z,994.32
2019-03-04T01:17:25.171Z,994.33
2019-03-04T01:18:25.163Z,994.32
2019-03-04T01:19:25.253Z,994.32
2019-03-04T01:20:25.133Z,994.19
2019-03-04T01:21:25.130Z,994.17
2019-03-04T01:22:25.112Z,994.18
2019-03-04T01:23:25.103Z,994.10
2019-03-04T01:24:25.120Z,994.16
2019-03-04T01:25:25.083Z,994.19
2019-03-04T01:26:25.076Z,994.10
2019-03-04T01:27:25.066Z,994.06
2019-03-04T01:28:25.051Z,993.99
2019-03-04T01:29:25.045Z,993.88
2019-03-04T01:30:25.046Z,993.84
2019-03-04T01:31:25.017Z,993.80
2019-03-04T01:32:25.023Z,993.75
2019-03-04T01:33:24.998Z,993.83
2019-03-04T01:34:24.994Z,993.68
2019-03-04T01:35:24.994Z,993.62
2019-03-04T01:36:24.973Z,993.57
2019-03-04T01:37:24.960Z,993.49
2019-03-04T01:38:24.948Z,993.51
2019-03-04T01:39:24.955Z,993.52
2019-03-04T01:40:24.943Z,993.43
2019-03-04T01:41:24.914Z,993.50
2019-03-04T01:42:24.904Z,993.44
2019-03-04T01:43:24.900Z,993.47
2019-03-04T01:44:24.881Z,993.50
2019-03-04T01:45:24.887Z,993.56
2019-03-04T01:46:24.860Z,993.53
2019-03-04T01:47:24.850Z,993.65
2019-03-04T01:48:24.843Z,993.59
2019-03-04T01:49:24.827Z,993.61
2019-03-04T01:50:24.848Z,993.62
2019-03-04T01:51:24.808Z,993.58
2019-03-04T01:52:24.795Z,993.54
2019-03-04T01:53:24.797Z,993.58
2019-03-04T01:54:24.825Z,993.65
2019-03-04T01:55:24.774Z,993.62
2019-03-04T01:56:24.777Z,993.66
2019-03-04T01:57:24.745Z,993.67
2019-03-04T01:58:24.736Z,993.70
2019-03-04T01:59:24.732Z,993.71
2019-03-04T02:00:24.714Z,993.68
2019-03-04T02:01:24.733Z,993.65
2019-03-04T02:02:24.691Z,993.66
2019-03-04T02:03:24.686Z,993.67
2019-03-04T02:04:24.675Z,993.65
2019-03-04T02:05:24.659Z,993.65
2019-03-04T02:06:24.670Z,993.66
2019-03-04T02:07:24.640Z,993.62
2019-03-04T02:08:24.627Z,993.56
2019-03-04T02:09:24.630Z,993.55
2019-03-04T02:10:24.610Z,993.57
2019-03-04T02:11:24.617Z,993.57
2019-03-04T02:12:24.589Z,993.53
2019-03-04T02:13:24.578Z,993.53
2019-03-04T02:14:24.566Z,993.53
2019-03-04T02:15:24.569Z,993.58
2019-03-04T02:16:24.568Z,993.67
2019-03-04T02:17:24.549Z,993.62
2019-03-04T02:18:24.524Z,993.63
2019-03-04T02:19:24.517Z,993.65
2019-03-04T02:20:24.503Z,993.62
2019-03-04T02:21:24.491Z,993.74
2019-03-04T02:22:24.508Z,993.82
2019-03-04T02:23:24.483Z,993.87
2019-03-04T02:24:24.461Z,993.91
2019-03-04T02:25:24.452Z,993.98
2019-03-04T02:26:24.442Z,994.04
2019-03-04T02:27:24.450Z,994.03
2019-03-04T02:28:24.420Z,994.07
2019-03-04T02:29:24.413Z,994.07
2019-03-04T02:30:24.410Z,993.96
2019-03-04T02:31:24.389Z,993.99
2019-03-04T02:32:24.394Z,994.02
2019-03-04T02:33:24.369Z,993.91
2019-03-04T02:34:24.358Z,993.82
2019-03-04T02:35:24.372Z,993.84
2019-03-04T02:36:24.340Z,993.79
2019-03-04T02:37:24.358Z,993.79
2019-03-04T02:38:24.328Z,993.79
2019-03-04T02:39:24.303Z,993.72
2019-03-04T02:40:24.297Z,993.75
2019-03-04T02:41:24.287Z,993.72
2019-03-04T02:42:24.302Z,993.73
2019-03-04T02:43:24.263Z,993.60
2019-03-04T02:44:24.258Z,993.62
2019-03-04T02:45:24.294Z,993.52
2019-03-04T02:46:24.244Z,993.60
2019-03-04T02:47:24.234Z,993.56
2019-03-04T02:48:24.234Z,993.54
2019-03-04T02:49:24.205Z,993.49
2019-03-04T02:50:24.194Z,993.41
2019-03-04T02:51:24.183Z,993.49
2019-03-04T02:52:24.181Z,993.46
2019-03-04T02:53:24.191Z,993.43
2019-03-04T02:54:24.162Z,993.34
2019-03-04T02:55:24.153Z,993.31
2019-03-04T02:56:24.152Z,993.22
2019-03-04T02:57:24.126Z,993.23
2019-03-04T02:58:24.128Z,993.18
2019-03-04T02:59:24.098Z,993.12
2019-03-04T03:00:24.095Z,993.09
2019-03-04T03:01:24.095Z,993.11
2019-03-04T03:02:24.081Z,993.02
2019-03-04T03:03:24.084Z,992.98
2019-03-04T03:04:24.054Z,992.92
2019-03-04T03:05:24.041Z,992.97
2019-03-04T03:06:24.030Z,992.91
2019-03-04T03:07:24.023Z,992.87
2019-03-04T03:08:24.008Z,992.86
2019-03-04T03:09:24.013Z,992.86
2019-03-04T03:10:23.998Z,992.78
2019-03-04T03:11:23.991Z,992.74
2019-03-04T03:12:23.978Z,992.72
2019-03-04T03:13:23.962Z,992.66
2019-03-04T03:14:23.964Z,992.68
2019-03-04T03:15:23.941Z,992.70
2019-03-04T03:16:23.933Z,992.73
2019-03-04T03:17:23.926Z,992.74
2019-03-04T03:18:23.907Z,992.68
2019-03-04T03:19:23.911Z,992.72
2019-03-04T03:20:23.882Z,992.68
2019-03-04T03:21:23.876Z,992.66
2019-03-04T03:22:23.865Z,992.54
2019-03-04T03:23:23.858Z,992.47
2019-03-04T03:24:23.891Z,992.48
2019-03-04T03:25:23.836Z,992.40
2019-03-04T03:26:23.827Z,992.42
2019-03-04T03:27:23.817Z,992.43
2019-03-04T03:28:23.803Z,992.34
2019-03-04T03:29:23.799Z,992.35
2019-03-04T03:30:23.932Z,992.31
2019-03-04T03:31:23.782Z,992.24
2019-03-04T03:32:23.778Z,992.25
2019-03-04T03:33:23.892Z,992.27
2019-03-04T03:34:23.753Z,992.24
2019-03-04T03:35:23.754Z,992.17
2019-03-04T03:36:23.726Z,992.17
2019-03-04T03:37:23.717Z,992.12
2019-03-04T03:38:23.707Z,992.21
2019-03-04T03:39:23.693Z,992.21
2019-03-04T03:40:23.698Z,992.24
2019-03-04T03:41:23.676Z,992.19
2019-03-04T03:42:23.664Z,992.19
2019-03-04T03:43:23.657Z,992.10
2019-03-04T03:44:23.653Z,992.03
2019-03-04T03:45:23.644Z,992.00
2019-03-04T03:46:23.629Z,991.98
2019-03-04T03:47:23.617Z,992.05
2019-03-04T03:48:23.606Z,992.01
2019-03-04T03:49:23.593Z,992.02
2019-03-04T03:50:23.613Z,992.10
2019-03-04T03:51:23.571Z,992.12
2019-03-04T03:52:23.569Z,992.12
2019-03-04T03:53:23.551Z,992.17
2019-03-04T03:54:23.540Z,992.24
2019-03-04T03:55:23.535Z,992.30
2019-03-04T03:56:23.537Z,992.28
2019-03-04T03:57:23.512Z,992.23
2019-03-04T03:58:25.242Z,992.12
2019-03-04T03:59:23.506Z,992.09
2019-03-04T04:00:23.490Z,992.14
2019-03-04T04:01:23.489Z,992.13
2019-03-04T04:02:23.465Z,992.06
2019-03-04T04:03:23.464Z,992.14
2019-03-04T04:04:23.448Z,992.14
2019-03-04T04:05:23.444Z,992.10
2019-03-04T04:06:23.433Z,992.02
2019-03-04T04:07:23.417Z,992.00
2019-03-04T04:08:23.404Z,992.02
2019-03-04T04:09:23.392Z,991.94
2019-03-04T04:10:23.393Z,991.93
2019-03-04T04:11:23.388Z,991.80
2019-03-04T04:12:23.363Z,991.80
2019-03-04T04:13:23.356Z,991.81
2019-03-04T04:14:23.344Z,991.81
2019-03-04T04:15:23.332Z,991.75
2019-03-04T04:16:23.338Z,991.67
2019-03-04T04:17:23.310Z,991.68
2019-03-04T04:18:23.305Z,991.74
2019-03-04T04:19:23.293Z,991.65
2019-03-04T04:20:23.289Z,991.57
2019-03-04T04:21:23.292Z,991.51
2019-03-04T04:22:23.259Z,991.51
2019-03-04T04:23:23.252Z,991.51
2019-03-04T04:24:23.243Z,991.44
2019-03-04T04:25:23.231Z,991.46
2019-03-04T04:26:23.220Z,991.42
2019-03-04T04:27:23.228Z,991.32
2019-03-04T04:28:23.200Z,991.26
2019-03-04T04:29:23.189Z,991.30
2019-03-04T04:30:23.186Z,991.30
2019-03-04T04:31:23.169Z,991.33
2019-03-04T04:32:23.173Z,991.26
2019-03-04T04:33:23.150Z,991.22
2019-03-04T04:34:23.139Z,991.28
2019-03-04T04:35:23.142Z,991.27
2019-03-04T04:36:23.116Z,991.23
2019-03-04T04:37:23.126Z,991.27
2019-03-04T04:38:23.104Z,991.23
2019-03-04T04:39:23.089Z,991.20
2019-03-04T04:40:23.092Z,991.20
2019-03-04T04:41:23.062Z,991.14
2019-03-04T04:42:23.074Z,991.14
2019-03-04T04:43:23.049Z,991.14
2019-03-04T04:44:23.040Z,991.15
2019-03-04T04:45:23.024Z,991.12
2019-03-04T04:46:23.014Z,991.09
2019-03-04T04:47:23.025Z,991.09
2019-03-04T04:48:22.996Z,991.10
2019-03-04T04:49:22.993Z,991.05
2019-03-04T04:50:22.975Z,991.05
2019-03-04T04:51:22.963Z,991.05
2019-03-04T04:52:23.402Z,991.03
2019-03-04T04:53:22.955Z,991.08
2019-03-04T04:54:22.939Z,991.02
2019-03-04T04:55:22.925Z,990.97
2019-03-04T04:56:22.926Z,991.00
2019-03-04T04:57:22.904Z,990.99
2019-03-04T04:58:22.909Z,991.01
2019-03-04T04:59:22.883Z,991.04
2019-03-04T05:00:22.877Z,990.92
2019-03-04T05:01:22.859Z,990.91
2019-03-04T05:02:22.851Z,990.95
2019-03-04T05:03:22.858Z,991.00
2019-03-04T05:04:22.828Z,990.99
2019-03-04T05:05:22.822Z,990.98
2019-03-04T05:06:22.809Z,990.97
2019-03-04T05:07:22.806Z,991.02
2019-03-04T05:08:22.821Z,991.00
2019-03-04T05:09:22.779Z,990.98
2019-03-04T05:10:22.826Z,991.01
2019-03-04T05:11:22.756Z,991.00
2019-03-04T05:12:22.754Z,990.99
2019-03-04T05:13:22.741Z,990.96
2019-03-04T05:14:22.763Z,990.94
2019-03-04T05:15:22.717Z,990.95
2019-03-04T05:16:22.704Z,990.88
2019-03-04T05:17:22.704Z,990.83
2019-03-04T05:18:22.685Z,990.86
2019-03-04T05:19:22.695Z,990.81
2019-03-04T05:20:22.689Z,990.83
2019-03-04T05:21:22.655Z,990.76
2019-03-04T05:22:22.644Z,990.68
2019-03-04T05:23:22.634Z,990.69
2019-03-04T05:24:22.643Z,990.65
2019-03-04T05:25:22.610Z,990.62
2019-03-04T05:26:22.606Z,990.50
2019-03-04T05:27:22.593Z,990.45
2019-03-04T05:28:22.581Z,990.45
2019-03-04T05:29:22.583Z,990.46
2019-03-04T05:30:22.566Z,990.53
2019-03-04T05:31:22.551Z,990.65
2019-03-04T05:32:22.543Z,990.62
2019-03-04T05:33:22.529Z,990.66
2019-03-04T05:34:22.549Z,990.59
2019-03-04T05:35:22.507Z,990.56
2019-03-04T05:36:22.497Z,990.57
2019-03-04T05:37:22.547Z,990.59
2019-03-04T05:38:22.474Z,990.57
2019-03-04T05:39:22.469Z,990.57
2019-03-04T05:40:22.473Z,990.62
2019-03-04T05:41:22.454Z,990.58
2019-03-04T05:42:24.495Z,990.57
2019-03-04T05:43:22.424Z,990.47
2019-03-04T05:44:22.415Z,990.41
2019-03-04T05:45:22.425Z,990.41
2019-03-04T05:46:22.393Z,990.36
2019-03-04T05:47:22.391Z,990.32
2019-03-04T05:48:22.379Z,990.31
2019-03-04T05:49:22.585Z,990.38
2019-03-04T05:50:22.385Z,990.29
2019-03-04T05:51:22.337Z,990.33
2019-03-04T05:52:22.335Z,990.31
2019-03-04T05:53:22.321Z,990.31
2019-03-04T05:54:22.306Z,990.28
2019-03-04T05:55:22.298Z,990.27
2019-03-04T05:56:22.306Z,990.28
2019-03-04T05:57:22.274Z,990.23
2019-03-04T05:58:22.269Z,990.25
2019-03-04T05:59:22.256Z,990.20
2019-03-04T06:00:22.247Z,990.16
2019-03-04T06:01:22.270Z,990.12
2019-03-04T06:02:22.223Z,990.15
2019-03-04T06:03:22.212Z,990.21
2019-03-04T06:04:22.206Z,990.22
2019-03-04T06:05:22.197Z,990.20
2019-03-04T06:06:22.193Z,990.16
2019-03-04T06:07:22.171Z,990.08
2019-03-04T06:08:22.163Z,990.04
2019-03-04T06:09:22.152Z,990.06
2019-03-04T06:10:22.139Z,990.03
2019-03-04T06:11:22.146Z,990.00
2019-03-04T06:12:22.118Z,990.05
2019-03-04T06:13:22.113Z,989.99
2019-03-04T06:14:22.097Z,989.94
2019-03-04T06:15:22.088Z,989.94
2019-03-04T06:16:22.111Z,989.92
2019-03-04T06:17:22.068Z,989.81
2019-03-04T06:18:22.059Z,989.75
2019-03-04T06:19:22.045Z,989.63
2019-03-04T06:20:22.032Z,989.64
2019-03-04T06:21:22.025Z,989.57
2019-03-04T06:22:22.035Z,989.62
2019-03-04T06:23:22.003Z,989.61
2019-03-04T06:24:21.998Z,989.62
2019-03-04T06:25:21.993Z,989.66
2019-03-04T06:26:21.975Z,989.61
2019-03-04T06:27:21.980Z,989.70
2019-03-04T06:28:21.954Z,989.83
2019-03-04T06:29:21.937Z,989.80
2019-03-04T06:30:21.929Z,989.78
2019-03-04T06:31:21.917Z,989.72
2019-03-04T06:32:21.921Z,989.77
2019-03-04T06:33:21.900Z,989.71
2019-03-04T06:34:21.884Z,989.69
2019-03-04T06:35:21.877Z,989.60
2019-03-04T06:36:21.867Z,989.53
2019-03-04T06:37:21.878Z,989.57
2019-03-04T06:38:21.842Z,989.59
2019-03-04T06:39:21.831Z,989.58
2019-03-04T06:40:21.831Z,989.50
2019-03-04T06:41:21.822Z,989.44
2019-03-04T06:42:21.821Z,989.35
2019-03-04T06:43:21.784Z,989.40
2019-03-04T06:44:21.785Z,989.50
2019-03-04T06:45:21.780Z,989.53
2019-03-04T06:46:21.759Z,989.51
2019-03-04T06:47:21.782Z,989.46
2019-03-04T06:48:21.737Z,989.41
2019-03-04T06:49:21.728Z,989.42
2019-03-04T06:50:21.718Z,989.43
2019-03-04T06:51:21.708Z,989.36
2019-03-04T06:52:21.698Z,989.34
2019-03-04T06:53:21.715Z,989.35
2019-03-04T06:54:21.678Z,989.38
2019-03-04T06:55:21.673Z,989.32
2019-03-04T06:56:21.656Z,989.26
2019-03-04T06:57:28.268Z,989.22
2019-03-04T06:58:22.643Z,989.12
2019-03-04T06:59:21.625Z,989.16
2019-03-04T07:00:21.613Z,989.14
2019-03-04T07:01:21.603Z,989.17
2019-03-04T07:02:21.599Z,989.05
2019-03-04T07:03:21.625Z,989.03
2019-03-04T07:04:21.570Z,988.97
2019-03-04T07:05:21.561Z,988.90
2019-03-04T07:06:21.551Z,988.96
2019-03-04T07:07:21.538Z,988.96
2019-03-04T07:08:21.527Z,988.96
2019-03-04T07:09:21.531Z,988.92
2019-03-04T07:10:21.513Z,988.87
2019-03-04T07:11:22.103Z,988.88
2019-03-04T07:12:21.491Z,988.84
2019-03-04T07:13:21.479Z,988.74
2019-03-04T07:14:21.487Z,988.73
2019-03-04T07:15:21.454Z,988.77
2019-03-04T07:16:21.445Z,988.80
2019-03-04T07:17:21.434Z,988.79
2019-03-04T07:18:21.421Z,988.88
2019-03-04T07:19:21.430Z,988.89
2019-03-04T07:20:21.409Z,988.86
2019-03-04T07:21:21.394Z,988.88
2019-03-04T07:22:21.381Z,988.81
2019-03-04T07:23:21.370Z,988.81
2019-03-04T07:24:21.374Z,988.75
2019-03-04T07:25:21.354Z,988.72
2019-03-04T07:26:21.334Z,988.59
2019-03-04T07:27:21.333Z,988.58
2019-03-04T07:28:21.320Z,988.54
2019-03-04T07:29:21.324Z,988.50
2019-03-04T07:30:21.318Z,988.45
2019-03-04T07:31:21.290Z,988.45
2019-03-04T07:32:21.281Z,988.42
2019-03-04T07:33:21.263Z,988.37
2019-03-04T07:34:21.271Z,988.40
2019-03-04T07:35:21.251Z,988.32
2019-03-04T07:36:21.237Z,988.30
2019-03-04T07:37:21.232Z,988.21
2019-03-04T07:38:21.215Z,988.14
2019-03-04T07:39:21.203Z,988.14
2019-03-04T07:40:21.209Z,988.13
2019-03-04T07:41:21.182Z,988.13
2019-03-04T07:42:21.177Z,988.09
2019-03-04T07:43:21.172Z,988.05
2019-03-04T07:44:21.147Z,988.01
2019-03-04T07:45:21.155Z,987.96
2019-03-04T07:46:21.129Z,987.97
2019-03-04T07:47:21.118Z,987.93
2019-03-04T07:48:21.107Z,988.00
2019-03-04T07:49:21.102Z,987.88
2019-03-04T07:50:21.102Z,987.76
2019-03-04T07:51:21.074Z,987.68
2019-03-04T07:52:21.063Z,987.70
2019-03-04T07:53:21.052Z,987.61
2019-03-04T07:54:21.046Z,987.61
2019-03-04T07:55:21.058Z,987.63
2019-03-04T07:56:21.028Z,987.67
2019-03-04T07:57:21.009Z,987.63
2019-03-04T07:58:21.007Z,987.71
2019-03-04T07:59:20.997Z,987.80
2019-03-04T08:00:20.983Z,987.74
2019-03-04T08:01:20.988Z,987.72
2019-03-04T08:02:20.960Z,987.63
2019-03-04T08:03:20.952Z,987.63
2019-03-04T08:04:20.941Z,987.64
2019-03-04T08:05:20.938Z,987.70
2019-03-04T08:06:20.931Z,987.67
2019-03-04T08:07:20.919Z,987.66
2019-03-04T08:08:20.899Z,987.54
2019-03-04T08:09:20.886Z,987.60
2019-03-04T08:10:20.877Z,987.54
2019-03-04T08:11:20.885Z,987.57
2019-03-04T08:12:20.855Z,987.47
2019-03-04T08:13:20.845Z,987.34
2019-03-04T08:14:20.834Z,987.20
2019-03-04T08:15:20.831Z,987.20
2019-03-04T08:16:20.826Z,987.17
2019-03-04T08:17:20.810Z,987.20
2019-03-04T08:18:20.796Z,987.11
2019-03-04T08:19:20.781Z,987.02
2019-03-04T08:20:20.777Z,986.93
2019-03-04T08:21:20.787Z,986.89
2019-03-04T08:22:20.766Z,986.85
2019-03-04T08:23:20.739Z,986.84
2019-03-04T08:24:20.741Z,986.86
2019-03-04T08:25:20.726Z,986.77
2019-03-04T08:26:20.712Z,986.80
2019-03-04T08:27:20.714Z,986.63
2019-03-04T08:28:20.688Z,986.70
2019-03-04T08:29:20.675Z,986.63
2019-03-04T08:30:20.668Z,986.52
2019-03-04T08:31:20.653Z,986.53
2019-03-04T08:32:20.655Z,986.96
2019-03-04T08:33:20.631Z,987.11
2019-03-04T08:34:30.567Z,987.10
2019-03-04T08:35:21.614Z,987.01
2019-03-04T08:36:20.606Z,986.78
2019-03-04T08:37:20.608Z,986.66
2019-03-04T08:38:20.575Z,986.50
2019-03-04T08:39:22.822Z,986.32
2019-03-04T08:40:20.562Z,986.28
2019-03-04T08:41:20.548Z,986.24
2019-03-04T08:42:20.559Z,986.26
2019-03-04T08:43:20.532Z,986.27
2019-03-04T08:44:20.517Z,986.23
2019-03-04T08:45:20.506Z,986.11
2019-03-04T08:46:20.498Z,985.96
2019-03-04T08:47:20.496Z,985.77
2019-03-04T08:48:20.476Z,985.83
2019-03-04T08:49:20.465Z,985.99
2019-03-04T08:50:20.464Z,986.11
2019-03-04T08:51:20.445Z,986.23
2019-03-04T08:52:20.455Z,986.28
2019-03-04T08:53:20.424Z,986.47
2019-03-04T08:54:20.411Z,986.48
2019-03-04T08:55:20.399Z,986.34
2019-03-04T08:56:20.390Z,986.33
2019-03-04T08:57:20.401Z,986.26
2019-03-04T08:58:20.377Z,986.15
2019-03-04T08:59:20.362Z,986.07
2019-03-04T09:00:20.347Z,986.09
2019-03-04T09:01:20.339Z,986.06
2019-03-04T09:02:20.331Z,986.03
2019-03-04T09:03:20.335Z,986.02
2019-03-04T09:04:20.311Z,986.02
2019-03-04T09:05:20.296Z,985.99
2019-03-04T09:06:20.285Z,985.97
2019-03-04T09:07:20.273Z,985.93
2019-03-04T09:08:20.280Z,985.90
2019-03-04T09:09:20.258Z,985.95
2019-03-04T09:10:20.246Z,985.94
2019-03-04T09:11:20.232Z,985.89
2019-03-04T09:12:20.222Z,985.87
2019-03-04T09:13:20.226Z,985.88
2019-03-04T09:14:20.202Z,985.81
2019-03-04T09:15:20.186Z,985.83
2019-03-04T09:16:20.179Z,985.76
2019-03-04T09:17:20.165Z,985.64
2019-03-04T09:18:20.185Z,985.59
2019-03-04T09:19:20.150Z,985.61
2019-03-04T09:20:20.137Z,985.49
2019-03-04T09:21:20.147Z,985.48
2019-03-04T09:22:20.114Z,985.52
2019-03-04T09:23:20.108Z,985.59
2019-03-04T09:24:20.110Z,985.66
2019-03-04T09:25:29.888Z,985.75
2019-03-04T09:26:21.074Z,985.70
2019-03-04T09:27:20.059Z,985.68
2019-03-04T09:28:20.055Z,985.65
2019-03-04T09:29:20.055Z,985.50
2019-03-04T09:30:20.031Z,985.61
2019-03-04T09:31:20.017Z,985.61
2019-03-04T09:32:20.017Z,985.59
2019-03-04T09:33:20.019Z,985.62
2019-03-04T09:34:20.016Z,985.47
2019-03-04T09:35:19.983Z,985.49
2019-03-04T09:36:19.969Z,985.47
2019-03-04T09:37:19.967Z,985.37
2019-03-04T09:38:19.945Z,985.47
2019-03-04T09:39:19.935Z,985.47
2019-03-04T09:40:19.943Z,985.48
2019-03-04T09:41:19.916Z,985.53
2019-03-04T09:42:19.907Z,985.53
2019-03-04T09:43:19.889Z,985.50
2019-03-04T09:44:19.888Z,985.54
2019-03-04T09:45:19.895Z,985.56
2019-03-04T09:46:19.907Z,985.52
2019-03-04T09:47:19.855Z,985.49
2019-03-04T09:48:19.839Z,985.50
2019-03-04T09:49:19.833Z,985.55
2019-03-04T09:50:19.839Z,985.49
2019-03-04T09:51:24.349Z,985.43
2019-03-04T09:52:19.801Z,985.47
2019-03-04T09:53:19.790Z,985.46
2019-03-04T09:54:19.790Z,985.50
2019-03-04T09:55:19.782Z,985.50
2019-03-04T09:56:19.758Z,985.42
2019-03-04T09:57:19.775Z,985.44
2019-03-04T09:58:19.739Z,985.40
2019-03-04T09:59:19.726Z,985.32
2019-03-04T10:00:19.738Z,985.34
2019-03-04T10:01:19.703Z,985.31
2019-03-04T10:02:19.697Z,985.23
2019-03-04T10:03:19.690Z,985.24
2019-03-04T10:04:19.673Z,985.21
2019-03-04T10:05:19.664Z,985.22
2019-03-04T10:06:19.666Z,985.08
2019-03-04T10:07:19.639Z,985.06
2019-03-04T10:08:19.631Z,985.04
2019-03-04T10:09:19.632Z,984.99
2019-03-04T10:10:19.613Z,984.97
2019-03-04T10:11:19.645Z,984.90
2019-03-04T10:12:19.595Z,984.82
2019-03-04T10:13:19.578Z,984.72
2019-03-04T10:14:19.574Z,984.80
2019-03-04T10:15:20.432Z,984.66
2019-03-04T10:16:19.547Z,984.61
2019-03-04T10:17:19.554Z,984.58
2019-03-04T10:18:19.527Z,984.55
2019-03-04T10:19:19.519Z,984.52
2019-03-04T10:20:19.517Z,984.51
2019-03-04T10:21:19.515Z,984.53
2019-03-04T10:22:19.511Z,984.52
2019-03-04T10:23:19.477Z,984.47
2019-03-04T10:24:19.467Z,984.51
2019-03-04T10:25:19.454Z,984.41
2019-03-04T10:26:22.582Z,984.48
2019-03-04T10:27:19.438Z,984.42
2019-03-04T10:28:19.436Z,984.33
2019-03-04T10:29:19.412Z,984.30
2019-03-04T10:30:19.405Z,984.26
2019-03-04T10:31:19.392Z,984.36
2019-03-04T10:32:19.383Z,984.36
2019-03-04T10:33:19.398Z,984.26
2019-03-04T10:34:19.357Z,984.32
2019-03-04T10:35:19.345Z,984.21
2019-03-04T10:36:19.339Z,984.26
2019-03-04T10:37:19.327Z,984.32
2019-03-04T10:38:22.648Z,984.24
2019-03-04T10:39:22.501Z,984.29
2019-03-04T10:40:19.296Z,984.30
2019-03-04T10:41:19.291Z,984.26
2019-03-04T10:42:19.281Z,984.42
2019-03-04T10:43:19.290Z,984.46
2019-03-04T10:44:19.253Z,984.28
2019-03-04T10:45:19.246Z,984.17
2019-03-04T10:46:19.230Z,984.31
2019-03-04T10:47:19.238Z,984.14
2019-03-04T10:48:19.209Z,984.12
2019-03-04T10:49:19.218Z,984.05
2019-03-04T10:50:19.193Z,984.16
2019-03-04T10:51:19.183Z,984.19
2019-03-04T10:52:19.171Z,984.16
2019-03-04T10:53:19.161Z,984.21
2019-03-04T10:54:19.169Z,984.23
2019-03-04T10:55:19.139Z,984.38
2019-03-04T10:56:19.126Z,984.24
2019-03-04T10:57:19.117Z,984.26
2019-03-04T10:58:19.105Z,984.27
2019-03-04T10:59:19.117Z,984.30
2019-03-04T11:00:19.089Z,984.26
2019-03-04T11:01:19.077Z,984.27
2019-03-04T11:02:19.066Z,984.30
2019-03-04T11:03:19.056Z,984.56
2019-03-04T11:04:19.043Z,984.27
2019-03-04T11:05:19.046Z,984.40
2019-03-04T11:06:19.025Z,984.29
2019-03-04T11:07:19.011Z,984.34
2019-03-04T11:08:19.000Z,984.57
2019-03-04T11:09:18.987Z,984.34
2019-03-04T11:10:18.996Z,984.38
2019-03-04T11:11:29.260Z,984.44
2019-03-04T11:12:19.958Z,984.43
2019-03-04T11:13:18.953Z,984.46
2019-03-04T11:14:18.944Z,984.53
2019-03-04T11:15:18.962Z,984.39
2019-03-04T11:16:18.922Z,984.54
2019-03-04T11:17:18.907Z,984.75
2019-03-04T11:18:18.916Z,984.92
2019-03-04T11:19:18.885Z,985.29
2019-03-04T11:20:18.870Z,985.93
2019-03-04T11:21:18.887Z,986.02
2019-03-04T11:22:18.855Z,986.12
2019-03-04T11:23:18.844Z,986.13
2019-03-04T11:24:18.836Z,986.12
2019-03-04T11:25:18.821Z,986.13
2019-03-04T11:26:18.826Z,986.12
2019-03-04T11:27:18.800Z,986.03
2019-03-04T11:28:18.788Z,986.20
2019-03-04T11:29:18.782Z,986.13
2019-03-04T11:30:18.772Z,986.39
2019-03-04T11:31:18.782Z,986.40
2019-03-04T11:32:18.747Z,986.34
2019-03-04T11:33:18.738Z,986.31
2019-03-04T11:34:18.737Z,986.31
2019-03-04T11:35:18.719Z,986.44
2019-03-04T11:36:18.717Z,986.33
2019-03-04T11:37:18.701Z,986.56
2019-03-04T11:38:18.687Z,986.43
2019-03-04T11:39:18.676Z,986.45
2019-03-04T11:40:18.668Z,986.51
2019-03-04T11:41:18.678Z,986.58
2019-03-04T11:42:18.649Z,986.44
2019-03-04T11:43:18.638Z,986.39
2019-03-04T11:44:18.623Z,986.42
2019-03-04T11:45:18.609Z,986.62
2019-03-04T11:46:18.604Z,986.55
2019-03-04T11:47:18.606Z,986.32
2019-03-04T11:48:18.588Z,986.11
2019-03-04T11:49:18.575Z,986.03
2019-03-04T11:50:18.557Z,986.08
2019-03-04T11:51:18.548Z,986.07
2019-03-04T11:52:18.562Z,986.04
2019-03-04T11:53:18.535Z,985.88
2019-03-04T11:54:18.518Z,986.03
2019-03-04T11:55:18.511Z,986.14
2019-03-04T11:56:18.497Z,985.94
2019-03-04T11:57:18.502Z,986.03
2019-03-04T11:58:18.475Z,985.87
2019-03-04T11:59:18.468Z,985.85
2019-03-04T12:00:18.470Z,985.93
2019-03-04T12:01:18.446Z,985.83
2019-03-04T12:02:18.435Z,985.73
2019-03-04T12:03:18.421Z,985.66
2019-03-04T12:04:18.420Z,985.68
2019-03-04T12:05:18.432Z,985.68
2019-03-04T12:06:18.394Z,985.72
2019-03-04T12:07:18.380Z,985.66
2019-03-04T12:08:18.370Z,985.69
2019-03-04T12:09:18.362Z,985.61
2019-03-04T12:10:18.357Z,985.62
2019-03-04T12:11:18.352Z,985.59
2019-03-04T12:12:18.330Z,985.62
2019-03-04T12:13:18.316Z,985.57
2019-03-04T12:14:18.309Z,985.59
2019-03-04T12:15:18.301Z,985.58
2019-03-04T12:16:18.302Z,985.69
2019-03-04T12:17:18.280Z,985.57
2019-03-04T12:18:18.267Z,985.61
2019-03-04T12:19:18.255Z,985.45
2019-03-04T12:20:18.243Z,985.49
2019-03-04T12:21:18.243Z,985.45
2019-03-04T12:22:18.225Z,985.44
2019-03-04T12:23:18.211Z,985.40
2019-03-04T12:24:18.199Z,985.49
2019-03-04T12:25:18.195Z,985.49
2019-03-04T12:26:18.684Z,985.39
2019-03-04T12:27:18.170Z,985.28
2019-03-04T12:28:18.158Z,985.43